sensor_id;sensor_type;location;lat;lon;timestamp;pressure;altitude;pressure_sealevel;temperature;humidity
16190;BME280;41754;51.498;7.540;2023-05-19T00:02:17;101305.16;;;10.62;54.85
16190;BME280;41754;51.498;7.540;2023-05-19T00:04:47;101293.97;;;10.48;55.43
16190;BME280;41754;51.498;7.540;2023-05-19T00:07:17;101298.72;;;10.76;54.64
16190;BME280;41754;51.498;7.540;2023-05-19T00:09:46;101299.28;;;10.73;54.84
16190;BME280;41754;51.498;7.540;2023-05-19T00:12:14;101296.59;;;10.68;54.67
16190;BME280;41754;51.498;7.540;2023-05-19T00:14:43;101289.47;;;10.62;55.09
16190;BME280;41754;51.498;7.540;2023-05-19T00:17:11;101293.69;;;10.55;55.44
16190;BME280;41754;51.498;7.540;2023-05-19T00:19:41;101295.34;;;10.50;55.67
16190;BME280;41754;51.498;7.540;2023-05-19T00:22:10;101291.53;;;10.80;54.53
16190;BME280;41754;51.498;7.540;2023-05-19T00:24:38;101287.78;;;10.32;56.26
16190;BME280;41754;51.498;7.540;2023-05-19T00:27:06;101287.41;;;10.44;56.33
16190;BME280;41754;51.498;7.540;2023-05-19T00:29:34;101289.69;;;10.32;56.83
16190;BME280;41754;51.498;7.540;2023-05-19T00:32:02;101287.72;;;10.37;56.57
16190;BME280;41754;51.498;7.540;2023-05-19T00:34:30;101286.03;;;10.46;56.38
16190;BME280;41754;51.498;7.540;2023-05-19T00:36:59;101288.88;;;10.26;57.50
16190;BME280;41754;51.498;7.540;2023-05-19T00:39:27;101290.13;;;10.00;58.21
16190;BME280;41754;51.498;7.540;2023-05-19T00:41:55;101288.72;;;10.07;57.97
16190;BME280;41754;51.498;7.540;2023-05-19T00:44:23;101298.69;;;9.88;58.85
16190;BME280;41754;51.498;7.540;2023-05-19T00:46:51;101296.50;;;9.85;59.01
16190;BME280;41754;51.498;7.540;2023-05-19T00:49:18;101299.28;;;9.80;59.16
16190;BME280;41754;51.498;7.540;2023-05-19T00:51:47;101297.03;;;9.92;58.42
16190;BME280;41754;51.498;7.540;2023-05-19T00:54:17;101297.94;;;9.72;59.71
16190;BME280;41754;51.498;7.540;2023-05-19T00:56:45;101298.28;;;9.55;60.63
16190;BME280;41754;51.498;7.540;2023-05-19T00:59:13;101289.28;;;9.99;58.45
16190;BME280;41754;51.498;7.540;2023-05-19T01:01:40;101294.34;;;9.82;59.56
16190;BME280;41754;51.498;7.540;2023-05-19T01:04:08;101303.66;;;9.86;59.23
16190;BME280;41754;51.498;7.540;2023-05-19T01:06:37;101299.63;;;9.68;60.27
16190;BME280;41754;51.498;7.540;2023-05-19T01:09:05;101296.78;;;9.83;59.55
16190;BME280;41754;51.498;7.540;2023-05-19T01:11:34;101299.34;;;9.59;60.31
16190;BME280;41754;51.498;7.540;2023-05-19T01:14:02;101299.31;;;9.64;60.06
16190;BME280;41754;51.498;7.540;2023-05-19T01:16:35;101296.09;;;9.47;60.53
16190;BME280;41754;51.498;7.540;2023-05-19T01:19:14;101296.59;;;9.64;59.91
16190;BME280;41754;51.498;7.540;2023-05-19T01:22:15;101294.91;;;9.79;59.30
16190;BME280;41754;51.498;7.540;2023-05-19T01:25:20;101299.75;;;9.97;58.65
16190;BME280;41754;51.498;7.540;2023-05-19T01:28:18;101297.03;;;9.87;59.09
16190;BME280;41754;51.498;7.540;2023-05-19T01:30:52;101294.41;;;9.67;59.78
16190;BME280;41754;51.498;7.540;2023-05-19T01:33:21;101295.44;;;9.81;59.34
16190;BME280;41754;51.498;7.540;2023-05-19T01:35:52;101288.84;;;9.82;58.98
16190;BME280;41754;51.498;7.540;2023-05-19T01:38:20;101283.38;;;9.72;59.76
16190;BME280;41754;51.498;7.540;2023-05-19T01:40:49;101283.34;;;9.82;59.59
16190;BME280;41754;51.498;7.540;2023-05-19T01:43:20;101282.47;;;9.91;59.07
16190;BME280;41754;51.498;7.540;2023-05-19T01:45:50;101279.47;;;9.83;59.21
16190;BME280;41754;51.498;7.540;2023-05-19T01:48:19;101285.63;;;10.14;58.52
16190;BME280;41754;51.498;7.540;2023-05-19T01:50:47;101289.41;;;9.74;59.17
16190;BME280;41754;51.498;7.540;2023-05-19T01:53:15;101277.63;;;9.63;59.63
16190;BME280;41754;51.498;7.540;2023-05-19T01:55:48;101283.63;;;9.80;58.97
16190;BME280;41754;51.498;7.540;2023-05-19T01:58:24;101275.75;;;9.53;59.72
16190;BME280;41754;51.498;7.540;2023-05-19T02:01:02;101283.69;;;9.60;59.27
16190;BME280;41754;51.498;7.540;2023-05-19T02:03:43;101286.81;;;9.33;60.37
16190;BME280;41754;51.498;7.540;2023-05-19T02:06:25;101293.56;;;9.71;59.25
16190;BME280;41754;51.498;7.540;2023-05-19T02:08:57;101285.94;;;9.53;59.82
16190;BME280;41754;51.498;7.540;2023-05-19T02:11:35;101298.03;;;9.47;60.66
16190;BME280;41754;51.498;7.540;2023-05-19T02:14:07;101295.69;;;9.84;58.53
16190;BME280;41754;51.498;7.540;2023-05-19T02:16:37;101297.13;;;9.72;59.08
16190;BME280;41754;51.498;7.540;2023-05-19T02:19:05;101296.22;;;9.86;58.18
16190;BME280;41754;51.498;7.540;2023-05-19T02:21:33;101297.53;;;9.14;60.59
16190;BME280;41754;51.498;7.540;2023-05-19T02:24:02;101300.50;;;9.43;60.49
16190;BME280;41754;51.498;7.540;2023-05-19T02:26:29;101307.09;;;9.37;59.97
16190;BME280;41754;51.498;7.540;2023-05-19T02:28:57;101295.59;;;9.30;60.83
16190;BME280;41754;51.498;7.540;2023-05-19T02:31:25;101299.41;;;9.44;60.42
16190;BME280;41754;51.498;7.540;2023-05-19T02:33:56;101299.91;;;9.67;59.43
16190;BME280;41754;51.498;7.540;2023-05-19T02:36:24;101296.44;;;9.00;61.39
16190;BME280;41754;51.498;7.540;2023-05-19T02:38:53;101293.94;;;8.78;61.93
16190;BME280;41754;51.498;7.540;2023-05-19T02:41:21;101295.03;;;9.43;60.19
16190;BME280;41754;51.498;7.540;2023-05-19T02:43:49;101294.19;;;9.43;59.76
16190;BME280;41754;51.498;7.540;2023-05-19T02:46:17;101299.66;;;9.53;60.18
16190;BME280;41754;51.498;7.540;2023-05-19T02:48:45;101290.91;;;9.41;60.43
16190;BME280;41754;51.498;7.540;2023-05-19T02:51:14;101292.78;;;9.55;59.37
16190;BME280;41754;51.498;7.540;2023-05-19T02:53:42;101292.44;;;9.72;59.07
16190;BME280;41754;51.498;7.540;2023-05-19T02:56:09;101296.06;;;9.57;59.07
16190;BME280;41754;51.498;7.540;2023-05-19T02:58:37;101286.44;;;9.60;58.50
16190;BME280;41754;51.498;7.540;2023-05-19T03:01:05;101298.81;;;9.57;58.33
16190;BME280;41754;51.498;7.540;2023-05-19T03:03:33;101298.34;;;9.30;58.37
16190;BME280;41754;51.498;7.540;2023-05-19T03:06:01;101297.47;;;9.45;58.04
16190;BME280;41754;51.498;7.540;2023-05-19T03:08:30;101296.66;;;9.44;57.70
16190;BME280;41754;51.498;7.540;2023-05-19T03:10:58;101286.22;;;9.46;57.86
16190;BME280;41754;51.498;7.540;2023-05-19T03:13:26;101290.06;;;9.40;58.84
16190;BME280;41754;51.498;7.540;2023-05-19T03:15:54;101287.31;;;9.45;58.86
16190;BME280;41754;51.498;7.540;2023-05-19T03:18:24;101289.03;;;9.11;59.12
16190;BME280;41754;51.498;7.540;2023-05-19T03:20:52;101275.78;;;9.38;58.45
16190;BME280;41754;51.498;7.540;2023-05-19T03:23:20;101278.59;;;9.13;59.13
16190;BME280;41754;51.498;7.540;2023-05-19T03:25:50;101290.06;;;9.40;58.71
16190;BME280;41754;51.498;7.540;2023-05-19T03:28:19;101288.16;;;9.35;58.82
16190;BME280;41754;51.498;7.540;2023-05-19T03:30:48;101283.44;;;9.56;57.72
16190;BME280;41754;51.498;7.540;2023-05-19T03:33:19;101278.75;;;9.57;58.16
16190;BME280;41754;51.498;7.540;2023-05-19T03:35:48;101283.22;;;9.27;59.21
16190;BME280;41754;51.498;7.540;2023-05-19T03:38:16;101291.22;;;9.14;59.35
16190;BME280;41754;51.498;7.540;2023-05-19T03:40:54;101285.19;;;9.07;60.23
16190;BME280;41754;51.498;7.540;2023-05-19T03:43:22;101291.22;;;9.24;59.66
16190;BME280;41754;51.498;7.540;2023-05-19T03:45:55;101293.16;;;9.18;59.76
16190;BME280;41754;51.498;7.540;2023-05-19T03:48:43;101296.44;;;9.10;60.36
16190;BME280;41754;51.498;7.540;2023-05-19T03:51:31;101300.84;;;9.16;60.17
16190;BME280;41754;51.498;7.540;2023-05-19T03:54:07;101292.06;;;9.04;58.79
16190;BME280;41754;51.498;7.540;2023-05-19T03:56:38;101296.13;;;9.27;59.19
16190;BME280;41754;51.498;7.540;2023-05-19T03:59:06;101300.84;;;9.16;58.94
16190;BME280;41754;51.498;7.540;2023-05-19T04:01:36;101296.44;;;9.00;59.23
16190;BME280;41754;51.498;7.540;2023-05-19T04:04:03;101293.97;;;9.09;59.29
16190;BME280;41754;51.498;7.540;2023-05-19T04:06:31;101294.78;;;9.19;59.31
16190;BME280;41754;51.498;7.540;2023-05-19T04:09:01;101292.91;;;8.94;59.23
16190;BME280;41754;51.498;7.540;2023-05-19T04:11:29;101290.69;;;9.17;59.55
16190;BME280;41754;51.498;7.540;2023-05-19T04:13:58;101301.63;;;9.27;58.19
16190;BME280;41754;51.498;7.540;2023-05-19T04:16:26;101296.63;;;9.54;57.78
16190;BME280;41754;51.498;7.540;2023-05-19T04:18:54;101302.44;;;9.43;57.71
16190;BME280;41754;51.498;7.540;2023-05-19T04:21:23;101298.88;;;9.42;58.43
16190;BME280;41754;51.498;7.540;2023-05-19T04:23:51;101303.78;;;9.55;58.50
16190;BME280;41754;51.498;7.540;2023-05-19T04:26:19;101301.34;;;9.44;58.94
16190;BME280;41754;51.498;7.540;2023-05-19T04:28:48;101295.94;;;9.88;58.09
16190;BME280;41754;51.498;7.540;2023-05-19T04:31:18;101295.66;;;9.94;57.60
16190;BME280;41754;51.498;7.540;2023-05-19T04:33:47;101301.72;;;9.86;57.74
16190;BME280;41754;51.498;7.540;2023-05-19T04:36:15;101293.69;;;10.05;57.25
16190;BME280;41754;51.498;7.540;2023-05-19T04:38:48;101288.66;;;10.22;56.68
16190;BME280;41754;51.498;7.540;2023-05-19T04:41:21;101298.19;;;9.76;57.32
16190;BME280;41754;51.498;7.540;2023-05-19T04:43:49;101292.00;;;10.09;56.49
16190;BME280;41754;51.498;7.540;2023-05-19T04:46:20;101289.88;;;10.45;56.13
16190;BME280;41754;51.498;7.540;2023-05-19T04:48:51;101294.50;;;10.50;55.91
16190;BME280;41754;51.498;7.540;2023-05-19T04:51:20;101288.66;;;10.62;55.57
16190;BME280;41754;51.498;7.540;2023-05-19T04:53:57;101296.63;;;10.63;56.18
16190;BME280;41754;51.498;7.540;2023-05-19T04:56:25;101293.91;;;10.58;56.02
16190;BME280;41754;51.498;7.540;2023-05-19T04:58:54;101303.03;;;10.88;55.81
16190;BME280;41754;51.498;7.540;2023-05-19T05:01:26;101303.22;;;10.67;58.32
16190;BME280;41754;51.498;7.540;2023-05-19T05:03:54;101293.19;;;10.81;56.81
16190;BME280;41754;51.498;7.540;2023-05-19T05:06:24;101298.63;;;10.92;57.97
16190;BME280;41754;51.498;7.540;2023-05-19T05:08:54;101290.13;;;11.12;57.18
16190;BME280;41754;51.498;7.540;2023-05-19T05:11:23;101292.06;;;11.11;58.38
16190;BME280;41754;51.498;7.540;2023-05-19T05:13:52;101298.25;;;11.56;55.13
16190;BME280;41754;51.498;7.540;2023-05-19T05:16:26;101302.44;;;11.54;56.88
16190;BME280;41754;51.498;7.540;2023-05-19T05:18:56;101307.00;;;11.34;56.46
16190;BME280;41754;51.498;7.540;2023-05-19T05:21:26;101300.41;;;11.83;55.00
16190;BME280;41754;51.498;7.540;2023-05-19T05:23:54;101298.97;;;11.91;54.05
16190;BME280;41754;51.498;7.540;2023-05-19T05:26:28;101303.19;;;11.83;55.09
16190;BME280;41754;51.498;7.540;2023-05-19T05:28:57;101308.47;;;11.80;54.48
16190;BME280;41754;51.498;7.540;2023-05-19T05:31:27;101296.75;;;12.31;52.93
16190;BME280;41754;51.498;7.540;2023-05-19T05:33:55;101294.91;;;11.83;54.01
16190;BME280;41754;51.498;7.540;2023-05-19T05:36:26;101297.97;;;12.01;53.85
16190;BME280;41754;51.498;7.540;2023-05-19T05:38:54;101296.72;;;12.12;53.82
16190;BME280;41754;51.498;7.540;2023-05-19T05:41:22;101299.38;;;12.41;51.67
16190;BME280;41754;51.498;7.540;2023-05-19T05:43:51;101298.69;;;12.49;51.82
16190;BME280;41754;51.498;7.540;2023-05-19T05:46:19;101297.34;;;12.27;51.40
16190;BME280;41754;51.498;7.540;2023-05-19T05:48:49;101299.41;;;12.92;50.60
16190;BME280;41754;51.498;7.540;2023-05-19T05:51:20;101287.97;;;12.66;50.94
16190;BME280;41754;51.498;7.540;2023-05-19T05:53:51;101291.16;;;12.54;51.53
16190;BME280;41754;51.498;7.540;2023-05-19T05:56:24;101291.84;;;12.65;51.58
16190;BME280;41754;51.498;7.540;2023-05-19T05:58:53;101293.19;;;13.00;49.88
16190;BME280;41754;51.498;7.540;2023-05-19T06:01:20;101294.28;;;12.99;49.79
16190;BME280;41754;51.498;7.540;2023-05-19T06:03:50;101292.63;;;13.31;49.50
16190;BME280;41754;51.498;7.540;2023-05-19T06:06:21;101291.22;;;13.61;48.74
16190;BME280;41754;51.498;7.540;2023-05-19T06:08:51;101299.16;;;13.67;48.37
16190;BME280;41754;51.498;7.540;2023-05-19T06:11:22;101300.16;;;13.85;48.10
16190;BME280;41754;51.498;7.540;2023-05-19T06:13:51;101291.84;;;13.99;48.18
16190;BME280;41754;51.498;7.540;2023-05-19T06:16:38;101287.63;;;14.51;47.32
16190;BME280;41754;51.498;7.540;2023-05-19T06:19:08;101292.41;;;14.23;47.88
16190;BME280;41754;51.498;7.540;2023-05-19T06:21:36;101285.69;;;14.02;47.65
16190;BME280;41754;51.498;7.540;2023-05-19T06:24:05;101279.31;;;14.15;47.35
16190;BME280;41754;51.498;7.540;2023-05-19T06:26:33;101288.69;;;14.42;46.47
16190;BME280;41754;51.498;7.540;2023-05-19T06:29:01;101293.25;;;13.28;48.02
16190;BME280;41754;51.498;7.540;2023-05-19T06:31:30;101283.06;;;13.69;47.66
16190;BME280;41754;51.498;7.540;2023-05-19T06:34:09;101287.81;;;13.36;48.24
16190;BME280;41754;51.498;7.540;2023-05-19T06:36:38;101276.09;;;14.58;46.01
16190;BME280;41754;51.498;7.540;2023-05-19T06:39:07;101278.56;;;13.87;46.79
16190;BME280;41754;51.498;7.540;2023-05-19T06:41:35;101269.91;;;14.61;45.62
16190;BME280;41754;51.498;7.540;2023-05-19T06:44:06;101276.50;;;13.93;45.37
16190;BME280;41754;51.498;7.540;2023-05-19T06:46:34;101275.84;;;14.68;45.41
16190;BME280;41754;51.498;7.540;2023-05-19T06:49:03;101278.69;;;14.18;46.23
16190;BME280;41754;51.498;7.540;2023-05-19T06:51:37;101277.50;;;13.97;46.11
16190;BME280;41754;51.498;7.540;2023-05-19T06:54:05;101275.13;;;14.76;44.74
16190;BME280;41754;51.498;7.540;2023-05-19T06:56:33;101277.66;;;14.86;44.12
16190;BME280;41754;51.498;7.540;2023-05-19T06:59:01;101273.00;;;15.35;43.20
16190;BME280;41754;51.498;7.540;2023-05-19T07:01:33;101269.63;;;15.38;42.61
16190;BME280;41754;51.498;7.540;2023-05-19T07:04:02;101276.38;;;14.70;43.66
16190;BME280;41754;51.498;7.540;2023-05-19T07:06:30;101275.66;;;15.40;42.63
16190;BME280;41754;51.498;7.540;2023-05-19T07:09:00;101271.72;;;15.72;42.82
16190;BME280;41754;51.498;7.540;2023-05-19T07:11:31;101273.63;;;16.29;41.72
16190;BME280;41754;51.498;7.540;2023-05-19T07:14:00;101271.38;;;15.65;42.01
16190;BME280;41754;51.498;7.540;2023-05-19T07:16:30;101268.97;;;15.41;42.21
16190;BME280;41754;51.498;7.540;2023-05-19T07:18:58;101268.19;;;15.89;41.65
16190;BME280;41754;51.498;7.540;2023-05-19T07:21:26;101271.00;;;16.93;39.97
16190;BME280;41754;51.498;7.540;2023-05-19T07:23:54;101269.53;;;16.52;40.04
16190;BME280;41754;51.498;7.540;2023-05-19T07:26:23;101259.75;;;16.38;40.16
16190;BME280;41754;51.498;7.540;2023-05-19T07:28:52;101257.44;;;16.14;40.36
16190;BME280;41754;51.498;7.540;2023-05-19T07:31:19;101257.38;;;17.09;39.56
16190;BME280;41754;51.498;7.540;2023-05-19T07:33:48;101258.91;;;16.02;40.63
16190;BME280;41754;51.498;7.540;2023-05-19T07:36:19;101260.25;;;16.65;39.68
16190;BME280;41754;51.498;7.540;2023-05-19T07:38:48;101258.09;;;16.80;40.85
16190;BME280;41754;51.498;7.540;2023-05-19T07:41:15;101264.94;;;16.82;40.03
16190;BME280;41754;51.498;7.540;2023-05-19T07:43:45;101269.53;;;17.51;38.48
16190;BME280;41754;51.498;7.540;2023-05-19T07:46:12;101265.22;;;17.92;37.80
16190;BME280;41754;51.498;7.540;2023-05-19T07:48:40;101266.47;;;17.73;38.19
16190;BME280;41754;51.498;7.540;2023-05-19T07:51:08;101252.19;;;17.84;38.05
16190;BME280;41754;51.498;7.540;2023-05-19T07:53:36;101260.97;;;18.57;36.79
16190;BME280;41754;51.498;7.540;2023-05-19T07:56:04;101257.88;;;18.37;36.75
16190;BME280;41754;51.498;7.540;2023-05-19T07:58:32;101257.19;;;18.40;36.17
16190;BME280;41754;51.498;7.540;2023-05-19T08:01:02;101255.13;;;17.78;37.06
16190;BME280;41754;51.498;7.540;2023-05-19T08:03:30;101260.66;;;17.87;36.70
16190;BME280;41754;51.498;7.540;2023-05-19T08:05:58;101256.72;;;19.05;35.49
16190;BME280;41754;51.498;7.540;2023-05-19T08:08:26;101252.94;;;18.76;35.58
16190;BME280;41754;51.498;7.540;2023-05-19T08:10:54;101252.00;;;18.72;35.40
16190;BME280;41754;51.498;7.540;2023-05-19T08:13:21;101249.53;;;17.87;36.50
16190;BME280;41754;51.498;7.540;2023-05-19T08:15:49;101252.22;;;17.37;36.96
16190;BME280;41754;51.498;7.540;2023-05-19T08:18:19;101250.28;;;18.17;36.06
16190;BME280;41754;51.498;7.540;2023-05-19T08:20:46;101244.28;;;18.36;35.30
16190;BME280;41754;51.498;7.540;2023-05-19T08:23:14;101241.13;;;18.91;35.08
16190;BME280;41754;51.498;7.540;2023-05-19T08:25:43;101237.91;;;19.02;34.98
16190;BME280;41754;51.498;7.540;2023-05-19T08:28:11;101237.88;;;19.35;34.42
16190;BME280;41754;51.498;7.540;2023-05-19T08:30:39;101236.50;;;20.30;33.43
16190;BME280;41754;51.498;7.540;2023-05-19T08:33:07;101233.91;;;19.97;32.04
16190;BME280;41754;51.498;7.540;2023-05-19T08:35:37;101222.84;;;19.64;32.83
16190;BME280;41754;51.498;7.540;2023-05-19T08:38:05;101223.75;;;19.07;33.92
16190;BME280;41754;51.498;7.540;2023-05-19T08:40:33;101224.47;;;19.65;33.33
16190;BME280;41754;51.498;7.540;2023-05-19T08:43:04;101225.91;;;19.83;32.93
16190;BME280;41754;51.498;7.540;2023-05-19T08:45:32;101216.38;;;19.84;32.62
16190;BME280;41754;51.498;7.540;2023-05-19T08:48:01;101214.66;;;20.76;31.79
16190;BME280;41754;51.498;7.540;2023-05-19T08:50:34;101219.97;;;20.25;32.05
16190;BME280;41754;51.498;7.540;2023-05-19T08:53:11;101211.88;;;20.07;31.72
16190;BME280;41754;51.498;7.540;2023-05-19T08:56:03;101201.94;;;19.70;31.88
16190;BME280;41754;51.498;7.540;2023-05-19T08:58:37;101204.28;;;20.20;31.06
16190;BME280;41754;51.498;7.540;2023-05-19T09:01:07;101195.41;;;20.18;30.71
16190;BME280;41754;51.498;7.540;2023-05-19T09:03:35;101194.09;;;20.00;30.22
16190;BME280;41754;51.498;7.540;2023-05-19T09:06:05;101193.91;;;20.21;30.40
16190;BME280;41754;51.498;7.540;2023-05-19T09:08:35;101194.09;;;20.00;30.09
16190;BME280;41754;51.498;7.540;2023-05-19T09:11:04;101182.88;;;20.40;30.60
16190;BME280;41754;51.498;7.540;2023-05-19T09:13:32;101189.41;;;20.44;29.34
16190;BME280;41754;51.498;7.540;2023-05-19T09:16:01;101190.47;;;19.99;28.50
16190;BME280;41754;51.498;7.540;2023-05-19T09:18:30;101184.66;;;19.80;29.68
16190;BME280;41754;51.498;7.540;2023-05-19T09:21:00;101195.53;;;20.50;29.43
16190;BME280;41754;51.498;7.540;2023-05-19T09:23:30;101190.16;;;20.29;29.43
16190;BME280;41754;51.498;7.540;2023-05-19T09:26:02;101187.34;;;19.76;30.12
16190;BME280;41754;51.498;7.540;2023-05-19T09:28:34;101182.97;;;18.69;32.90
16190;BME280;41754;51.498;7.540;2023-05-19T09:31:04;101175.34;;;18.45;32.15
16190;BME280;41754;51.498;7.540;2023-05-19T09:33:34;101175.78;;;18.80;32.14
16190;BME280;41754;51.498;7.540;2023-05-19T09:36:02;101181.28;;;19.01;31.83
16190;BME280;41754;51.498;7.540;2023-05-19T09:38:32;101170.22;;;18.35;33.25
16190;BME280;41754;51.498;7.540;2023-05-19T09:41:01;101179.00;;;18.70;32.21
16190;BME280;41754;51.498;7.540;2023-05-19T09:43:30;101169.91;;;18.49;31.55
16190;BME280;41754;51.498;7.540;2023-05-19T09:46:02;101158.50;;;20.25;30.06
16190;BME280;41754;51.498;7.540;2023-05-19T09:48:31;101169.25;;;21.61;29.77
16190;BME280;41754;51.498;7.540;2023-05-19T09:51:00;101160.53;;;21.47;29.01
16190;BME280;41754;51.498;7.540;2023-05-19T09:53:29;101157.63;;;21.43;30.22
16190;BME280;41754;51.498;7.540;2023-05-19T09:55:58;101160.56;;;20.00;28.77
16190;BME280;41754;51.498;7.540;2023-05-19T09:58:31;101156.56;;;21.16;29.58
16190;BME280;41754;51.498;7.540;2023-05-19T10:01:02;101149.19;;;21.08;29.27
16190;BME280;41754;51.498;7.540;2023-05-19T10:03:30;101155.81;;;21.51;27.93
16190;BME280;41754;51.498;7.540;2023-05-19T10:06:00;101158.06;;;21.80;29.12
16190;BME280;41754;51.498;7.540;2023-05-19T10:08:28;101154.66;;;22.26;27.47
16190;BME280;41754;51.498;7.540;2023-05-19T10:10:58;101146.63;;;21.03;28.35
16190;BME280;41754;51.498;7.540;2023-05-19T10:13:28;101129.94;;;21.93;27.09
16190;BME280;41754;51.498;7.540;2023-05-19T10:15:58;101127.78;;;20.84;29.02
16190;BME280;41754;51.498;7.540;2023-05-19T10:18:26;101137.22;;;21.43;28.18
16190;BME280;41754;51.498;7.540;2023-05-19T10:20:56;101138.44;;;21.96;28.67
16190;BME280;41754;51.498;7.540;2023-05-19T10:23:24;101138.97;;;22.02;25.83
16190;BME280;41754;51.498;7.540;2023-05-19T10:25:55;101134.44;;;21.97;26.14
16190;BME280;41754;51.498;7.540;2023-05-19T10:28:25;101141.78;;;22.21;28.49
16190;BME280;41754;51.498;7.540;2023-05-19T10:31:00;101140.81;;;21.59;28.88
16190;BME280;41754;51.498;7.540;2023-05-19T10:33:35;101142.19;;;21.18;30.83
16190;BME280;41754;51.498;7.540;2023-05-19T10:36:18;101135.38;;;20.56;28.73
16190;BME280;41754;51.498;7.540;2023-05-19T10:38:57;101136.25;;;20.72;30.22
16190;BME280;41754;51.498;7.540;2023-05-19T10:41:32;101134.72;;;21.22;28.81
16190;BME280;41754;51.498;7.540;2023-05-19T10:44:08;101127.91;;;21.54;27.96
16190;BME280;41754;51.498;7.540;2023-05-19T10:46:42;101136.56;;;21.84;29.97
16190;BME280;41754;51.498;7.540;2023-05-19T10:49:19;101127.88;;;21.19;28.61
16190;BME280;41754;51.498;7.540;2023-05-19T10:51:47;101123.00;;;20.85;30.88
16190;BME280;41754;51.498;7.540;2023-05-19T10:54:15;101125.84;;;22.06;29.03
16190;BME280;41754;51.498;7.540;2023-05-19T10:56:46;101109.88;;;24.37;25.82
16190;BME280;41754;51.498;7.540;2023-05-19T10:59:30;101112.06;;;24.92;24.44
16190;BME280;41754;51.498;7.540;2023-05-19T11:02:03;101125.66;;;25.30;22.94
16190;BME280;41754;51.498;7.540;2023-05-19T11:04:39;101116.59;;;23.66;25.58
16190;BME280;41754;51.498;7.540;2023-05-19T11:07:17;101118.06;;;24.53;23.99
16190;BME280;41754;51.498;7.540;2023-05-19T11:09:48;101112.81;;;24.89;23.19
16190;BME280;41754;51.498;7.540;2023-05-19T11:12:21;101111.09;;;23.20;24.89
16190;BME280;41754;51.498;7.540;2023-05-19T11:14:51;101113.09;;;23.42;25.02
16190;BME280;41754;51.498;7.540;2023-05-19T11:17:20;101117.75;;;25.57;24.35
16190;BME280;41754;51.498;7.540;2023-05-19T11:19:52;101110.91;;;24.22;24.69
16190;BME280;41754;51.498;7.540;2023-05-19T11:22:22;101110.56;;;25.67;23.16
16190;BME280;41754;51.498;7.540;2023-05-19T11:24:53;101099.13;;;25.38;23.07
16190;BME280;41754;51.498;7.540;2023-05-19T11:27:25;101119.38;;;23.92;24.99
16190;BME280;41754;51.498;7.540;2023-05-19T11:29:54;101110.19;;;24.29;25.60
16190;BME280;41754;51.498;7.540;2023-05-19T11:32:27;101105.56;;;24.47;23.46
16190;BME280;41754;51.498;7.540;2023-05-19T11:34:55;101100.47;;;27.21;22.38
16190;BME280;41754;51.498;7.540;2023-05-19T11:37:24;101101.06;;;25.97;21.92
16190;BME280;41754;51.498;7.540;2023-05-19T11:39:52;101091.97;;;26.89;22.15
16190;BME280;41754;51.498;7.540;2023-05-19T11:42:20;101088.38;;;27.09;21.19
16190;BME280;41754;51.498;7.540;2023-05-19T11:44:48;101083.13;;;28.31;20.46
16190;BME280;41754;51.498;7.540;2023-05-19T11:47:16;101078.13;;;28.53;20.06
16190;BME280;41754;51.498;7.540;2023-05-19T11:49:47;101084.50;;;28.02;19.77
16190;BME280;41754;51.498;7.540;2023-05-19T11:52:15;101092.03;;;28.30;21.28
16190;BME280;41754;51.498;7.540;2023-05-19T11:54:47;101083.44;;;27.67;21.58
16190;BME280;41754;51.498;7.540;2023-05-19T11:57:15;101095.56;;;26.46;21.38
16190;BME280;41754;51.498;7.540;2023-05-19T11:59:43;101077.44;;;26.97;20.15
16190;BME280;41754;51.498;7.540;2023-05-19T12:02:18;101080.66;;;28.40;19.73
16190;BME280;41754;51.498;7.540;2023-05-19T12:04:48;101089.00;;;27.88;19.69
16190;BME280;41754;51.498;7.540;2023-05-19T12:07:17;101080.91;;;27.87;20.27
16190;BME280;41754;51.498;7.540;2023-05-19T12:09:46;101078.13;;;29.05;20.96
16190;BME280;41754;51.498;7.540;2023-05-19T12:12:15;101072.44;;;29.50;18.02
16190;BME280;41754;51.498;7.540;2023-05-19T12:14:43;101070.66;;;29.63;18.00
16190;BME280;41754;51.498;7.540;2023-05-19T12:17:13;101073.69;;;29.04;18.29
16190;BME280;41754;51.498;7.540;2023-05-19T12:19:43;101074.09;;;29.43;18.11
16190;BME280;41754;51.498;7.540;2023-05-19T12:22:12;101062.69;;;30.42;16.55
16190;BME280;41754;51.498;7.540;2023-05-19T12:24:41;101060.59;;;30.46;17.27
16190;BME280;41754;51.498;7.540;2023-05-19T12:27:10;101057.88;;;29.82;17.82
16190;BME280;41754;51.498;7.540;2023-05-19T12:29:39;101054.97;;;30.16;16.72
16190;BME280;41754;51.498;7.540;2023-05-19T12:32:07;101047.66;;;29.16;17.73
16190;BME280;41754;51.498;7.540;2023-05-19T12:34:35;101042.03;;;31.55;15.31
16190;BME280;41754;51.498;7.540;2023-05-19T12:37:04;101051.13;;;30.80;15.51
16190;BME280;41754;51.498;7.540;2023-05-19T12:39:33;101027.47;;;31.30;15.23
16190;BME280;41754;51.498;7.540;2023-05-19T12:42:02;101035.97;;;31.10;15.31
16190;BME280;41754;51.498;7.540;2023-05-19T12:44:30;101035.00;;;31.99;19.70
16190;BME280;41754;51.498;7.540;2023-05-19T12:46:58;101023.53;;;32.39;17.04
16190;BME280;41754;51.498;7.540;2023-05-19T12:49:27;101029.00;;;32.30;17.22
16190;BME280;41754;51.498;7.540;2023-05-19T12:51:55;101024.38;;;31.64;15.45
16190;BME280;41754;51.498;7.540;2023-05-19T12:54:22;101026.19;;;31.94;17.80
16190;BME280;41754;51.498;7.540;2023-05-19T12:56:53;101024.38;;;31.44;17.11
16190;BME280;41754;51.498;7.540;2023-05-19T12:59:22;101028.06;;;32.53;16.42
16190;BME280;41754;51.498;7.540;2023-05-19T13:02:04;101029.72;;;31.62;15.34
16190;BME280;41754;51.498;7.540;2023-05-19T13:04:36;101033.44;;;32.31;14.69
16190;BME280;41754;51.498;7.540;2023-05-19T13:07:04;101035.38;;;32.86;13.47
16190;BME280;41754;51.498;7.540;2023-05-19T13:09:32;101033.28;;;33.03;14.90